Time;durP1;ratioP1;P1;durP2;ratioP2;P2;SDS_P1;SDS_P2;PMS_P1;PMS_P2;Temp;Humidity;BMP_temperature;BMP_pressure;BME280_temperature;BME280_humidity;BME280_pressure;Samples;Min_cycle;Max_cycle;Signal;HPM_P1;HPM_P2
2021/10/23 00:01:26;;;;;;;0.77;0.70;;;;;;;7.10;77.57;97039.84;5038201;28;20672;-70
2021/10/23 00:03:53;;;;;;;2.77;0.90;;;;;;;7.12;77.41;97051.84;5037212;28;20197;-69
2021/10/23 00:06:19;;;;;;;0.63;0.63;;;;;;;7.19;77.54;97046.88;5036542;28;20812;-68
2021/10/23 00:08:46;;;;;;;0.70;0.70;;;;;;;7.06;77.69;97056.81;5038709;28;20585;-69
2021/10/23 00:11:12;;;;;;;1.93;0.60;;;;;;;6.95;78.56;97049.91;5037498;28;20255;-69
2021/10/23 00:13:40;;;;;;;0.73;0.60;;;;;;;7.32;77.78;97058.75;5037245;28;20212;-69
2021/10/23 00:16:07;;;;;;;0.80;0.80;;;;;;;7.08;77.85;97060.13;5036911;28;20224;-69
2021/10/23 00:18:33;;;;;;;0.73;0.70;;;;;;;7.07;77.61;97051.41;5037503;28;20575;-68
2021/10/23 00:21:00;;;;;;;1.90;1.23;;;;;;;7.08;77.57;97060.13;5034669;28;20201;-69
2021/10/23 00:23:26;;;;;;;0.50;0.50;;;;;;;7.04;78.40;97054.31;5037658;28;20205;-69
2021/10/23 00:25:53;;;;;;;0.60;0.40;;;;;;;7.01;78.41;97064.22;5036518;28;20279;-70
2021/10/23 00:28:20;;;;;;;0.40;0.40;;;;;;;7.22;78.34;97057.06;5037148;28;20204;-69
2021/10/23 00:30:48;;;;;;;0.80;0.80;;;;;;;7.45;78.11;97051.44;5037113;28;20216;-69
2021/10/23 00:33:14;;;;;;;0.97;0.87;;;;;;;7.31;78.39;97063.16;5036488;28;20206;-69
2021/10/23 00:35:41;;;;;;;0.63;0.63;;;;;;;7.34;78.01;97062.06;5036301;28;20236;-68
2021/10/23 00:38:08;;;;;;;2.60;0.90;;;;;;;7.32;78.59;97059.59;5037185;28;20205;-70
2021/10/23 00:40:34;;;;;;;1.80;0.50;;;;;;;7.34;79.04;97062.91;5037368;28;20208;-70
2021/10/23 00:43:01;;;;;;;1.27;0.70;;;;;;;7.50;77.90;97065.78;5037028;28;20216;-69
2021/10/23 00:45:28;;;;;;;0.53;0.53;;;;;;;7.54;78.62;97058.47;5036171;28;20235;-70
2021/10/23 00:47:56;;;;;;;0.60;0.60;;;;;;;7.67;77.93;97069.53;5036598;28;20208;-70
2021/10/23 00:50:22;;;;;;;0.60;0.60;;;;;;;7.49;77.28;97064.13;5036963;28;20685;-69
2021/10/23 00:52:50;;;;;;;6.17;0.97;;;;;;;7.72;77.74;97069.94;5036521;28;20838;-70
2021/10/23 00:55:17;;;;;;;0.37;0.37;;;;;;;7.76;77.88;97069.50;5036449;28;20252;-69
2021/10/23 00:57:43;;;;;;;0.40;0.40;;;;;;;7.57;78.21;97068.69;5036956;28;20208;-69
2021/10/23 01:00:10;;;;;;;0.37;0.33;;;;;;;7.83;76.98;97081.09;5036687;28;20201;-70
2021/10/23 01:02:37;;;;;;;0.83;0.80;;;;;;;7.78;77.65;97077.22;5036464;28;20306;-69
2021/10/23 01:05:07;;;;;;;0.63;0.63;;;;;;;7.95;78.38;97067.66;5036697;28;20212;-69
2021/10/23 01:07:34;;;;;;;0.33;0.33;;;;;;;7.89;77.51;97073.50;5035585;28;20212;-69
2021/10/23 01:10:04;;;;;;;0.60;0.60;;;;;;;7.93;77.75;97068.81;5037067;28;20201;-69
2021/10/23 01:12:31;;;;;;;2.07;0.83;;;;;;;7.47;78.66;97065.22;5037030;28;20886;-69
2021/10/23 01:14:57;;;;;;;1.53;0.83;;;;;;;7.61;77.91;97064.81;5035917;28;20244;-70
2021/10/23 01:17:24;;;;;;;0.40;0.40;;;;;;;7.61;77.08;97067.44;5035384;28;20205;-69
2021/10/23 01:19:53;;;;;;;0.30;0.30;;;;;;;7.76;77.34;97053.75;5034109;28;20543;-69
2021/10/23 01:22:27;;;;;;;0.83;0.40;;;;;;;7.92;76.82;97059.28;5036198;28;20681;-70
2021/10/23 01:24:54;;;;;;;0.87;0.67;;;;;;;7.69;78.14;97052.69;5035769;28;20566;-69
2021/10/23 01:27:20;;;;;;;0.97;0.70;;;;;;;7.76;76.92;97056.38;5036012;28;20314;-69
2021/10/23 01:29:47;;;;;;;1.77;0.87;;;;;;;7.77;77.12;97052.78;5036630;28;20581;-69
2021/10/23 01:32:14;;;;;;;0.83;0.83;;;;;;;7.78;77.52;97056.22;5036383;28;21067;-70
2021/10/23 01:34:40;;;;;;;0.30;0.30;;;;;;;8.02;77.65;97049.59;5036632;28;20236;-69
2021/10/23 01:37:08;;;;;;;8.53;0.77;;;;;;;8.25;77.20;97049.13;5035568;28;20228;-70
2021/10/23 01:39:35;;;;;;;3.70;0.57;;;;;;;8.05;77.38;97049.28;5036132;28;20201;-69
2021/10/23 01:42:03;;;;;;;1.10;0.93;;;;;;;8.26;77.01;97052.56;5036458;28;20452;-69
2021/10/23 01:44:31;;;;;;;2.73;1.07;;;;;;;8.24;76.96;97057.97;5039236;28;20197;-69
2021/10/23 01:46:58;;;;;;;1.80;1.30;;;;;;;8.17;76.82;97058.69;5039353;28;21500;-69
2021/10/23 01:49:25;;;;;;;0.60;0.60;;;;;;;8.40;77.30;97049.47;5039976;28;20208;-69
2021/10/23 01:51:52;;;;;;;1.17;0.80;;;;;;;8.06;76.50;97064.91;5040184;28;20212;-69
2021/10/23 01:54:20;;;;;;;0.60;0.50;;;;;;;8.41;76.59;97053.78;5039730;28;20205;-69
2021/10/23 01:56:47;;;;;;;0.40;0.40;;;;;;;7.94;77.74;97052.06;5039031;28;20585;-69
2021/10/23 01:59:13;;;;;;;0.40;0.30;;;;;;;8.16;77.00;97052.59;5040501;28;20208;-70
2021/10/23 02:01:40;;;;;;;0.73;0.73;;;;;;;8.24;76.87;97054.53;5040024;28;20205;-70
2021/10/23 02:04:06;;;;;;;1.43;1.13;;;;;;;8.15;76.93;97056.19;5038510;28;20212;-69
2021/10/23 02:06:33;;;;;;;1.00;0.90;;;;;;;8.12;76.14;97055.63;5037956;28;20257;-70
2021/10/23 02:08:59;;;;;;;2.83;0.87;;;;;;;8.08;76.07;97059.50;5039732;28;20263;-70
2021/10/23 02:11:27;;;;;;;6.90;0.70;;;;;;;8.17;76.25;97063.94;5039877;28;20296;-68
2021/10/23 02:13:54;;;;;;;0.30;0.30;;;;;;;8.10;76.80;97062.81;5039910;28;20704;-69
2021/10/23 02:16:20;;;;;;;3.83;1.13;;;;;;;8.16;77.13;97063.13;5038754;28;20236;-69
2021/10/23 02:18:47;;;;;;;0.57;0.50;;;;;;;8.16;76.69;97064.88;5039422;28;20201;-70
2021/10/23 02:21:13;;;;;;;3.90;0.80;;;;;;;7.97;77.42;97075.44;5036910;28;20568;-69
2021/10/23 02:23:41;;;;;;;5.23;0.83;;;;;;;8.39;77.31;97071.44;5039488;28;20232;-70
2021/10/23 02:26:07;;;;;;;0.73;0.73;;;;;;;8.34;77.09;97073.69;5038427;28;20213;-69
2021/10/23 02:28:36;;;;;;;0.87;0.60;;;;;;;8.62;76.71;97079.66;5039678;28;20664;-70
2021/10/23 02:31:02;;;;;;;1.40;0.77;;;;;;;8.24;78.23;97072.91;5040256;28;20207;-70
2021/10/23 02:33:29;;;;;;;1.77;0.73;;;;;;;8.09;77.40;97080.34;5038862;28;20224;-70
2021/10/23 02:35:55;;;;;;;0.30;0.30;;;;;;;8.09;77.78;97075.09;5038524;28;20240;-69
2021/10/23 02:38:22;;;;;;;0.67;0.60;;;;;;;8.27;77.31;97081.31;5039136;28;20209;-69
2021/10/23 02:40:48;;;;;;;2.00;0.90;;;;;;;8.38;77.99;97093.47;5039497;28;20212;-69
2021/10/23 02:43:15;;;;;;;2.40;1.03;;;;;;;8.38;77.63;97082.94;5039409;28;20212;-69
2021/10/23 02:45:43;;;;;;;0.30;0.30;;;;;;;8.12;77.66;97079.25;5038153;28;20223;-70
2021/10/23 02:48:09;;;;;;;0.73;0.67;;;;;;;8.26;77.78;97079.66;5039008;28;20209;-70
2021/10/23 02:50:36;;;;;;;0.40;0.40;;;;;;;8.43;77.65;97078.09;5039289;28;20205;-69
2021/10/23 02:53:02;;;;;;;2.53;0.77;;;;;;;7.84;78.26;97087.16;5039096;28;20201;-70
2021/10/23 02:55:29;;;;;;;1.53;0.93;;;;;;;8.12;77.17;97093.22;5037633;28;20244;-69
2021/10/23 02:57:55;;;;;;;1.90;0.90;;;;;;;8.03;77.92;97099.31;5038722;28;20206;-69
2021/10/23 03:00:22;;;;;;;9.37;2.20;;;;;;;8.00;77.24;97093.50;5039004;28;20205;-70
2021/10/23 03:02:50;;;;;;;1.00;1.00;;;;;;;8.16;77.32;97091.13;5038988;28;20366;-68
2021/10/23 03:05:17;;;;;;;0.83;0.70;;;;;;;8.16;77.10;97084.13;5038331;28;20654;-69
2021/10/23 03:07:44;;;;;;;1.60;0.50;;;;;;;8.34;77.04;97089.44;5038472;28;20220;-69
2021/10/23 03:10:11;;;;;;;0.30;0.30;;;;;;;8.39;78.15;97084.59;5038825;28;20941;-69
2021/10/23 03:12:37;;;;;;;1.87;0.53;;;;;;;8.33;77.56;97082.56;5038440;28;20209;-70
2021/10/23 03:15:04;;;;;;;0.60;0.60;;;;;;;8.52;76.65;97092.00;5038104;28;20225;-69
2021/10/23 03:17:31;;;;;;;2.77;0.90;;;;;;;8.45;76.82;97086.66;5037618;28;20201;-69
2021/10/23 03:19:59;;;;;;;1.43;1.10;;;;;;;8.46;77.26;97086.50;5035221;28;20202;-70
2021/10/23 03:22:26;;;;;;;1.07;0.97;;;;;;;8.35;77.67;97091.94;5038207;28;21231;-69
2021/10/23 03:24:52;;;;;;;1.50;0.70;;;;;;;8.20;77.63;97090.72;5038484;28;20650;-70
2021/10/23 03:27:22;;;;;;;0.47;0.47;;;;;;;8.15;77.61;97103.44;5037695;28;20229;-70
2021/10/23 03:29:48;;;;;;;0.60;0.60;;;;;;;8.15;77.08;97103.44;5038319;28;20209;-69
2021/10/23 03:32:15;;;;;;;1.07;0.70;;;;;;;8.14;77.04;97107.03;5038110;28;20209;-70
2021/10/23 03:34:41;;;;;;;10.13;1.23;;;;;;;8.09;77.02;97106.59;5038178;28;20205;-69
2021/10/23 03:37:09;;;;;;;1.97;0.73;;;;;;;8.16;77.91;97109.50;5037365;28;20217;-69
2021/10/23 03:39:36;;;;;;;0.40;0.40;;;;;;;7.87;77.34;97119.22;5038515;28;20205;-69
2021/10/23 03:42:02;;;;;;;0.70;0.60;;;;;;;7.84;77.74;97111.63;5037661;28;20208;-70
2021/10/23 03:44:29;;;;;;;1.03;0.87;;;;;;;7.76;78.24;97116.72;5038268;28;20204;-70
2021/10/23 03:46:55;;;;;;;5.43;0.90;;;;;;;7.73;77.16;97113.56;5037593;28;20217;-70
2021/10/23 03:49:22;;;;;;;3.37;1.60;;;;;;;7.61;78.43;97112.88;5038531;28;20840;-69
2021/10/23 03:51:48;;;;;;;2.83;1.13;;;;;;;7.59;77.96;97112.16;5037598;28;20752;-70
2021/10/23 03:54:16;;;;;;;1.73;1.27;;;;;;;7.61;78.71;97117.28;5037465;28;20212;-70
2021/10/23 03:56:42;;;;;;;1.70;1.00;;;;;;;7.45;79.07;97117.81;5037013;28;20601;-69
2021/10/23 03:59:09;;;;;;;2.60;1.17;;;;;;;7.44;79.29;97124.03;5038657;28;20201;-70
2021/10/23 04:01:35;;;;;;;0.77;0.77;;;;;;;7.44;79.37;97120.59;5037764;28;20212;-69
2021/10/23 04:04:02;;;;;;;0.60;0.60;;;;;;;7.53;79.20;97123.19;5037545;28;20205;-69
2021/10/23 04:06:28;;;;;;;1.23;1.13;;;;;;;7.47;79.24;97126.41;5036675;28;20243;-69
2021/10/23 04:08:55;;;;;;;0.63;0.63;;;;;;;7.40;79.97;97133.13;5036791;28;20205;-70
2021/10/23 04:11:22;;;;;;;0.63;0.53;;;;;;;7.64;80.14;97138.81;5037442;28;20205;-69
2021/10/23 04:13:49;;;;;;;2.50;1.27;;;;;;;7.55;80.72;97129.16;5037825;28;20201;-68
2021/10/23 04:16:15;;;;;;;0.63;0.63;;;;;;;7.58;80.72;97134.13;5036797;28;20244;-70
2021/10/23 04:18:42;;;;;;;0.97;0.63;;;;;;;7.45;81.44;97138.78;5037483;28;20218;-69
2021/10/23 04:21:08;;;;;;;5.30;0.83;;;;;;;7.57;81.22;97140.31;5034871;28;20201;-69
2021/10/23 04:23:35;;;;;;;2.87;1.23;;;;;;;7.63;81.27;97142.41;5037238;28;20201;-69
2021/10/23 04:26:01;;;;;;;0.70;0.70;;;;;;;7.71;80.77;97139.09;5036127;28;20217;-69
2021/10/23 04:28:29;;;;;;;1.40;1.00;;;;;;;7.96;80.62;97139.38;5037528;28;20209;-69
2021/10/23 04:30:55;;;;;;;1.57;0.93;;;;;;;7.86;80.58;97137.72;5037384;28;20205;-70
2021/10/23 04:33:22;;;;;;;0.70;0.70;;;;;;;7.78;80.81;97140.19;5037237;28;20208;-70
2021/10/23 04:35:50;;;;;;;1.60;1.27;;;;;;;7.73;80.54;97143.25;5036176;28;20236;-70
2021/10/23 04:38:17;;;;;;;5.30;1.07;;;;;;;7.78;81.12;97143.66;5036958;28;20205;-70
2021/10/23 04:40:43;;;;;;;0.40;0.40;;;;;;;7.76;80.50;97147.38;5037309;28;20231;-69
2021/10/23 04:43:10;;;;;;;2.83;1.10;;;;;;;7.74;80.88;97144.06;5036791;28;21154;-69
2021/10/23 04:45:39;;;;;;;4.10;1.47;;;;;;;8.06;80.68;97146.25;5036828;28;20225;-69
2021/10/23 04:48:06;;;;;;;1.07;0.83;;;;;;;7.87;80.86;97148.91;5036653;28;20205;-69
2021/10/23 04:50:32;;;;;;;1.07;1.00;;;;;;;7.92;81.11;97143.25;5037098;28;20218;-69
2021/10/23 04:52:59;;;;;;;2.17;1.03;;;;;;;7.82;81.23;97146.84;5036757;28;20201;-69
2021/10/23 04:55:25;;;;;;;1.37;1.03;;;;;;;7.84;81.14;97152.75;5036156;28;20225;-69
2021/10/23 04:57:53;;;;;;;1.40;0.80;;;;;;;7.94;80.56;97149.16;5036624;28;20646;-69
2021/10/23 05:00:20;;;;;;;4.77;1.57;;;;;;;7.90;80.87;97151.25;5037542;28;20288;-69
2021/10/23 05:02:47;;;;;;;2.43;1.33;;;;;;;8.27;81.40;97143.50;5036799;28;20209;-69
2021/10/23 05:05:14;;;;;;;0.70;0.70;;;;;;;8.08;80.58;97148.75;5036428;28;20594;-69
2021/10/23 05:07:40;;;;;;;2.93;1.03;;;;;;;8.14;80.43;97154.28;5036001;28;20209;-69
2021/10/23 05:10:08;;;;;;;2.17;1.03;;;;;;;8.32;80.11;97147.34;5037141;28;20212;-70
2021/10/23 05:12:34;;;;;;;2.13;1.50;;;;;;;8.13;80.44;97159.66;5036726;28;20204;-69
2021/10/23 05:15:01;;;;;;;2.13;1.50;;;;;;;8.14;80.35;97156.09;5036606;28;20212;-68
2021/10/23 05:17:27;;;;;;;3.83;2.03;;;;;;;8.05;80.52;97156.91;5035808;28;20239;-70
2021/10/23 05:19:55;;;;;;;16.17;1.60;;;;;;;8.45;80.05;97152.31;5034099;28;20242;-69
2021/10/23 05:22:21;;;;;;;3.40;1.60;;;;;;;8.08;80.48;97154.84;5036690;28;20213;-69
2021/10/23 05:24:48;;;;;;;5.33;2.30;;;;;;;8.15;81.03;97149.88;5035048;28;20264;-69
2021/10/23 05:27:14;;;;;;;2.90;1.13;;;;;;;8.11;80.68;97148.47;5035260;28;20331;-69
2021/10/23 05:29:41;;;;;;;0.83;0.83;;;;;;;7.93;80.53;97145.72;5036445;28;20197;-69
2021/10/23 05:32:07;;;;;;;1.03;0.97;;;;;;;7.85;81.30;97152.63;5036311;28;20209;-69
2021/10/23 05:34:34;;;;;;;3.13;1.33;;;;;;;7.95;81.32;97149.03;5036601;28;20213;-69
2021/10/23 05:37:02;;;;;;;1.40;0.93;;;;;;;8.34;81.24;97150.69;5035295;28;20221;-69
2021/10/23 05:39:28;;;;;;;0.60;0.57;;;;;;;8.09;80.95;97151.22;5036278;28;20208;-68
2021/10/23 05:41:55;;;;;;;10.83;1.17;;;;;;;7.92;82.38;97162.44;5036435;28;20227;-70
2021/10/23 05:44:21;;;;;;;4.17;1.83;;;;;;;8.08;81.64;97161.88;5036640;28;20216;-70
2021/10/23 05:46:48;;;;;;;1.47;1.10;;;;;;;8.04;80.86;97163.13;5035879;28;20221;-68
2021/10/23 05:49:14;;;;;;;1.97;1.53;;;;;;;8.25;79.92;97161.19;5036110;28;20209;-71
2021/10/23 05:51:41;;;;;;;2.10;1.63;;;;;;;8.18;81.39;97160.09;5036164;28;21077;-70
2021/10/23 05:54:09;;;;;;;1.63;1.10;;;;;;;8.52;79.53;97164.75;5036562;28;20296;-70
2021/10/23 05:56:35;;;;;;;4.53;1.40;;;;;;;8.33;79.77;97163.97;5035244;28;20860;-70
2021/10/23 05:59:10;;;;;;;4.33;0.73;;;;;;;8.38;80.13;97159.94;5036184;28;20206;-71
2021/10/23 06:01:37;;;;;;;3.13;1.37;;;;;;;8.36;81.10;97161.84;5036593;28;20204;-70
2021/10/23 06:04:04;;;;;;;3.20;1.03;;;;;;;8.29;81.65;97163.41;5035824;28;20205;-70
2021/10/23 06:06:31;;;;;;;1.57;1.17;;;;;;;8.20;81.94;97172.13;5034925;28;20240;-70
2021/10/23 06:08:57;;;;;;;1.67;0.80;;;;;;;8.39;81.27;97174.72;5036917;28;20212;-70
2021/10/23 06:11:26;;;;;;;5.50;1.13;;;;;;;8.69;80.50;97188.50;5035363;28;20319;-70
2021/10/23 06:13:55;;;;;;;1.30;0.77;;;;;;;8.44;80.72;97184.78;5035392;28;20205;-70
2021/10/23 06:16:22;;;;;;;3.80;1.00;;;;;;;8.43;80.86;97191.03;5035669;28;20275;-70
2021/10/23 06:18:48;;;;;;;0.70;0.70;;;;;;;8.38;81.40;97193.25;5036290;28;20209;-71
2021/10/23 06:21:15;;;;;;;1.80;0.93;;;;;;;8.59;80.58;97195.56;5033702;28;20236;-71
2021/10/23 06:23:42;;;;;;;0.97;0.97;;;;;;;8.72;81.09;97200.50;5035608;28;20228;-70
2021/10/23 06:26:08;;;;;;;1.07;0.87;;;;;;;8.61;80.74;97212.00;5035822;28;20217;-69
2021/10/23 06:28:37;;;;;;;0.63;0.63;;;;;;;8.79;80.36;97205.03;5035952;28;20224;-70
2021/10/23 06:31:03;;;;;;;1.07;0.50;;;;;;;8.66;80.08;97209.78;5037045;28;20205;-69
2021/10/23 06:33:30;;;;;;;3.13;0.90;;;;;;;8.45;80.49;97217.97;5039413;28;20733;-69
2021/10/23 06:35:56;;;;;;;1.17;0.93;;;;;;;8.48;80.40;97211.47;5038779;28;20225;-71
2021/10/23 06:38:23;;;;;;;1.07;0.67;;;;;;;8.42;79.79;97215.63;5038967;28;20205;-71
2021/10/23 06:40:49;;;;;;;0.60;0.50;;;;;;;8.63;79.77;97219.72;5039891;28;20701;-70
2021/10/23 06:43:16;;;;;;;5.23;0.87;;;;;;;8.63;78.67;97219.72;5039377;28;20212;-71
2021/10/23 06:45:44;;;;;;;1.40;1.30;;;;;;;8.91;79.77;97216.19;5037762;28;20229;-70
2021/10/23 06:48:12;;;;;;;6.57;1.10;;;;;;;8.79;79.61;97230.50;5039481;28;20274;-70
2021/10/23 06:50:38;;;;;;;1.00;1.00;;;;;;;8.68;80.52;97233.28;5039355;28;20577;-70
2021/10/23 06:53:05;;;;;;;1.10;1.00;;;;;;;8.87;79.08;97228.81;5038880;28;20213;-69
2021/10/23 06:55:31;;;;;;;2.83;1.80;;;;;;;8.63;79.93;97236.34;5038326;28;20228;-69
2021/10/23 06:57:58;;;;;;;3.30;1.43;;;;;;;8.64;79.71;97245.03;5038568;28;21527;-72
2021/10/23 07:00:24;;;;;;;4.30;0.80;;;;;;;8.74;79.53;97246.66;5039077;28;20205;-71
2021/10/23 07:02:52;;;;;;;2.03;1.60;;;;;;;9.09;79.83;97239.81;5038920;28;20205;-70
2021/10/23 07:05:20;;;;;;;5.00;1.37;;;;;;;8.72;80.33;97250.44;5038650;28;20224;-70
2021/10/23 07:07:47;;;;;;;8.40;1.50;;;;;;;8.89;79.64;97257.59;5038219;28;20776;-69
2021/10/23 07:10:14;;;;;;;5.50;2.80;;;;;;;9.15;79.63;97254.16;5038556;28;20941;-68
2021/10/23 07:12:40;;;;;;;4.57;0.90;;;;;;;9.16;79.18;97266.34;5038401;28;20676;-70
2021/10/23 07:15:08;;;;;;;0.60;0.60;;;;;;;9.10;77.61;97266.94;5039073;28;20251;-70
2021/10/23 07:17:34;;;;;;;4.10;2.27;;;;;;;9.15;77.83;97267.31;5037700;28;20229;-72
2021/10/23 07:20:03;;;;;;;3.33;1.80;;;;;;;9.37;79.35;97272.25;5034980;28;20208;-71
2021/10/23 07:22:29;;;;;;;14.53;1.87;;;;;;;9.19;79.31;97284.50;5038578;28;20205;-71
2021/10/23 07:24:55;;;;;;;0.60;0.60;;;;;;;9.03;77.58;97286.88;5038110;28;20205;-71
2021/10/23 07:27:22;;;;;;;2.83;1.23;;;;;;;9.17;77.28;97299.56;5037972;28;20217;-71
2021/10/23 07:29:48;;;;;;;1.17;1.07;;;;;;;9.38;76.78;97306.28;5038520;28;20213;-71
2021/10/23 07:32:15;;;;;;;2.73;1.23;;;;;;;9.34;76.71;97298.81;5038268;28;20205;-71
2021/10/23 07:34:41;;;;;;;1.17;1.07;;;;;;;9.28;77.78;97308.13;5038455;28;20209;-72
2021/10/23 07:37:09;;;;;;;3.07;1.40;;;;;;;9.65;77.81;97300.22;5037386;28;20708;-71
2021/10/23 07:39:36;;;;;;;1.90;1.23;;;;;;;9.47;76.18;97308.06;5037905;28;20975;-72
2021/10/23 07:42:04;;;;;;;5.60;2.00;;;;;;;9.77;75.98;97303.31;5038053;28;20204;-72
2021/10/23 07:44:30;;;;;;;1.73;1.17;;;;;;;9.71;76.87;97303.94;5037356;28;20209;-72
2021/10/23 07:46:57;;;;;;;2.37;0.80;;;;;;;9.70;75.63;97289.09;5037859;28;20221;-72
2021/10/23 07:49:23;;;;;;;2.47;1.33;;;;;;;9.74;76.19;97285.19;5038011;28;20580;-72
2021/10/23 07:51:50;;;;;;;0.97;0.93;;;;;;;9.73;74.64;97278.28;5037318;28;20213;-71
2021/10/23 07:54:18;;;;;;;1.90;0.83;;;;;;;9.91;75.67;97271.25;5037883;28;20205;-71
2021/10/23 07:56:44;;;;;;;2.07;0.77;;;;;;;9.68;75.54;97273.63;5037336;28;20240;-71
2021/10/23 07:59:11;;;;;;;1.43;0.93;;;;;;;9.79;76.14;97277.69;5038041;28;20204;-72
2021/10/23 08:01:38;;;;;;;2.40;1.20;;;;;;;9.75;75.65;97278.97;5037576;28;21132;-71
2021/10/23 08:04:05;;;;;;;7.23;1.37;;;;;;;9.50;76.48;97276.19;5037795;28;20208;-71
2021/10/23 08:06:31;;;;;;;0.67;0.67;;;;;;;9.11;77.24;97294.88;5036634;28;20233;-71
2021/10/23 08:08:58;;;;;;;0.80;0.77;;;;;;;9.31;76.76;97292.03;5037415;28;20201;-71
2021/10/23 08:11:25;;;;;;;2.23;1.00;;;;;;;9.65;77.28;97287.03;5037880;28;20197;-71
2021/10/23 08:13:52;;;;;;;2.33;1.33;;;;;;;9.60;75.88;97287.50;5037621;28;20216;-71
2021/10/23 08:16:18;;;;;;;2.27;1.20;;;;;;;9.71;75.66;97280.25;5036987;28;20232;-71
2021/10/23 08:18:45;;;;;;;6.57;0.77;;;;;;;9.71;75.53;97288.13;5037580;28;20236;-71
2021/10/23 08:21:11;;;;;;;0.83;0.77;;;;;;;9.82;75.72;97298.44;5033906;28;20209;-71
2021/10/23 08:23:38;;;;;;;1.00;0.90;;;;;;;9.99;75.40;97305.63;5037467;28;20209;-71
2021/10/23 08:26:04;;;;;;;1.97;1.50;;;;;;;9.89;76.06;97302.16;5036848;28;20225;-71
2021/10/23 08:28:33;;;;;;;3.07;1.53;;;;;;;10.32;74.79;97297.06;5037375;28;20205;-72
2021/10/23 08:31:00;;;;;;;0.93;0.87;;;;;;;10.36;74.36;97295.78;5036966;28;20784;-72
2021/10/23 08:33:26;;;;;;;3.93;1.80;;;;;;;10.40;73.91;97295.34;5038207;28;20673;-72
2021/10/23 08:35:53;;;;;;;3.60;1.70;;;;;;;10.20;74.91;97303.53;5036260;28;20290;-72
2021/10/23 08:38:19;;;;;;;4.00;2.50;;;;;;;10.42;74.62;97297.81;5037086;28;20236;-72
2021/10/23 08:40:46;;;;;;;3.77;1.43;;;;;;;10.55;73.66;97293.00;5037377;28;20229;-71
2021/10/23 08:43:12;;;;;;;3.40;2.10;;;;;;;10.70;73.85;97281.75;5037204;28;20205;-71
2021/10/23 08:45:40;;;;;;;16.57;4.07;;;;;;;10.97;74.00;97284.28;5036786;28;20232;-71
2021/10/23 08:48:07;;;;;;;9.00;3.17;;;;;;;10.78;73.92;97294.19;5037137;28;20682;-71
2021/10/23 08:50:35;;;;;;;9.17;3.90;;;;;;;10.95;73.46;97288.88;5037015;28;20209;-71
2021/10/23 08:53:02;;;;;;;4.43;2.40;;;;;;;10.46;75.05;97288.63;5035928;28;20205;-72
2021/10/23 08:55:29;;;;;;;4.03;2.40;;;;;;;10.40;74.72;97289.25;5036246;28;20224;-71
2021/10/23 08:57:56;;;;;;;2.83;1.97;;;;;;;10.30;74.86;97296.41;5037745;28;20236;-72
2021/10/23 09:00:22;;;;;;;6.80;3.53;;;;;;;10.47;75.63;97290.28;5036238;28;20197;-72
2021/10/23 09:02:51;;;;;;;2.30;1.87;;;;;;;11.04;73.87;97296.69;5036367;28;20201;-71
2021/10/23 09:05:18;;;;;;;2.60;1.80;;;;;;;10.71;73.91;97304.50;5036680;28;20201;-71
2021/10/23 09:07:46;;;;;;;4.47;1.53;;;;;;;10.66;74.49;97290.94;5036040;28;20205;-71
2021/10/23 09:10:13;;;;;;;2.83;1.53;;;;;;;10.91;74.14;97290.19;5036504;28;20729;-71
2021/10/23 09:12:40;;;;;;;1.37;0.83;;;;;;;11.07;74.37;97293.75;5036724;28;21281;-71
2021/10/23 09:15:10;;;;;;;1.13;0.93;;;;;;;11.15;74.32;97282.41;5036750;28;20200;-71
2021/10/23 09:17:40;;;;;;;4.73;1.53;;;;;;;11.61;73.82;97288.19;5035621;28;20228;-71
2021/10/23 09:20:10;;;;;;;2.20;1.17;;;;;;;11.84;72.42;97291.91;5034085;28;20201;-71
2021/10/23 09:22:39;;;;;;;4.43;1.63;;;;;;;11.57;72.50;97300.03;5036667;28;20216;-71
2021/10/23 09:25:14;;;;;;;2.20;1.03;;;;;;;11.92;71.76;97300.66;5036124;28;20224;-71
2021/10/23 09:27:56;;;;;;;1.33;1.00;;;;;;;11.73;71.91;97306.19;5036086;28;20201;-72
2021/10/23 09:30:30;;;;;;;2.33;0.90;;;;;;;11.79;71.66;97291.56;5036075;28;20212;-71
2021/10/23 09:32:58;;;;;;;2.37;1.53;;;;;;;12.00;73.03;97284.03;5036232;28;20220;-72
2021/10/23 09:35:26;;;;;;;9.20;1.83;;;;;;;12.28;70.76;97287.09;5035922;28;20228;-72
2021/10/23 09:37:55;;;;;;;2.03;1.17;;;;;;;12.06;71.08;97275.47;5035931;28;20306;-71
2021/10/23 09:40:24;;;;;;;2.40;1.40;;;;;;;12.13;71.59;97281.75;5036076;28;20212;-71
2021/10/23 09:43:12;;;;;;;4.10;1.80;;;;;;;12.70;69.88;97285.13;5036512;28;20208;-72
2021/10/23 09:46:00;;;;;;;2.33;0.97;;;;;;;12.25;72.67;97284.75;5035794;28;20319;-72
2021/10/23 09:48:29;;;;;;;1.53;1.40;;;;;;;12.22;70.60;97292.19;5035701;28;20209;-71
2021/10/23 09:51:11;;;;;;;1.73;1.23;;;;;;;12.51;69.34;97297.84;5036398;28;20288;-71
2021/10/23 09:53:38;;;;;;;3.20;1.70;;;;;;;12.22;70.81;97300.94;5035959;28;20670;-71
2021/10/23 09:56:07;;;;;;;7.87;1.70;;;;;;;12.47;71.24;97313.22;5035491;28;20233;-71
2021/10/23 09:58:34;;;;;;;2.60;1.50;;;;;;;12.38;69.66;97298.31;5036858;28;20781;-72
2021/10/23 10:01:01;;;;;;;2.53;1.60;;;;;;;12.71;68.41;97307.97;5035638;28;20198;-71
2021/10/23 10:03:29;;;;;;;1.10;1.00;;;;;;;12.36;68.86;97305.59;5035742;28;20201;-72
2021/10/23 10:05:56;;;;;;;3.63;1.57;;;;;;;12.79;68.83;97302.66;5037328;28;20237;-71
2021/10/23 10:08:24;;;;;;;3.40;1.83;;;;;;;12.90;68.15;97311.13;5040701;28;20201;-71
2021/10/23 10:10:52;;;;;;;1.60;1.07;;;;;;;12.64;68.37;97316.72;5039362;28;20670;-72
2021/10/23 10:13:22;;;;;;;1.27;1.03;;;;;;;12.88;67.57;97322.88;5039451;28;20212;-71
2021/10/23 10:15:50;;;;;;;1.53;1.10;;;;;;;12.53;68.56;97319.69;5039289;28;20237;-72
2021/10/23 10:18:17;;;;;;;5.40;1.13;;;;;;;12.20;69.71;97321.41;5039659;28;20611;-71
2021/10/23 10:20:46;;;;;;;2.33;1.63;;;;;;;12.77;68.85;97312.59;5036339;28;20208;-71
2021/10/23 10:23:17;;;;;;;2.73;2.00;;;;;;;12.89;67.29;97316.59;5039988;28;20197;-72
2021/10/23 10:25:53;;;;;;;1.23;1.00;;;;;;;13.20;65.39;97317.56;5038820;28;20231;-71
2021/10/23 10:28:20;;;;;;;1.67;1.10;;;;;;;12.80;66.40;97314.91;5039071;28;20201;-72
2021/10/23 10:30:48;;;;;;;1.57;1.20;;;;;;;13.24;65.79;97322.38;5039636;28;20288;-71
2021/10/23 10:33:20;;;;;;;5.27;1.57;;;;;;;13.74;64.60;97309.69;5039546;28;20208;-72
2021/10/23 10:36:12;;;;;;;1.93;1.53;;;;;;;14.02;63.52;97306.44;5038299;28;20237;-72
2021/10/23 10:38:57;;;;;;;5.47;2.03;;;;;;;14.40;63.14;97295.03;5039530;28;20287;-71
2021/10/23 10:44:17;;;;;;;2.07;1.17;;;;;;;14.04;61.91;97289.38;5038817;28;20208;-72
2021/10/23 10:47:18;;;;;;;2.73;1.27;;;;;;;14.72;60.65;97291.13;5038355;28;20221;-72
2021/10/23 10:49:52;;;;;;;8.75;2.22;;;;;;;14.50;60.64;97285.84;5039315;28;20299;-71
2021/10/23 10:52:52;;;;;;;1.63;1.10;;;;;;;14.63;62.40;97287.91;5039073;28;20209;-72
2021/10/23 10:55:20;;;;;;;2.95;1.42;;;;;;;14.61;62.57;97288.06;5038778;28;20233;-72
2021/10/23 10:58:03;;;;;;;3.00;1.60;;;;;;;14.65;61.48;97284.91;5038308;28;20225;-71
2021/10/23 11:01:12;;;;;;;1.95;1.33;;;;;;;14.93;57.64;97285.16;5038106;28;20680;-71
2021/10/23 11:03:44;;;;;;;0.70;0.70;;;;;;;14.67;61.67;97285.53;5037633;28;20209;-72
2021/10/23 11:06:37;;;;;;;6.53;1.77;;;;;;;15.09;60.26;97282.38;5038159;28;20240;-71
2021/10/23 11:09:31;;;;;;;2.47;1.63;;;;;;;14.53;62.42;97268.75;5038547;28;20197;-71
2021/10/23 11:12:19;;;;;;;1.93;1.47;;;;;;;14.90;58.49;97278.38;5039203;28;20228;-71
2021/10/23 11:14:47;;;;;;;1.65;1.23;;;;;;;14.60;62.24;97282.94;5038659;28;20205;-71
2021/10/23 11:17:18;;;;;;;7.43;1.83;;;;;;;14.16;61.80;97276.59;5037165;28;20221;-72
2021/10/23 11:19:48;;;;;;;2.53;1.53;;;;;;;14.87;59.73;97276.09;5036290;28;20287;-72
2021/10/23 11:22:16;;;;;;;2.15;1.05;;;;;;;14.45;59.21;97271.47;5038414;28;20216;-71
2021/10/23 11:24:45;;;;;;;1.40;1.30;;;;;;;14.94;57.75;97277.03;5037124;28;20213;-72
2021/10/23 11:27:35;;;;;;;3.60;1.40;;;;;;;15.26;57.61;97279.41;5037890;28;20221;-71
2021/10/23 11:30:25;;;;;;;3.97;1.47;;;;;;;15.31;57.44;97271.72;5038676;28;20315;-72
2021/10/23 11:32:57;;;;;;;2.72;1.50;;;;;;;14.52;55.85;97273.19;5034147;28;20296;-72
2021/10/23 11:35:32;;;;;;;3.72;0.95;;;;;;;14.48;54.50;97276.41;5038066;28;20225;-71
2021/10/23 11:37:59;;;;;;;2.33;1.10;;;;;;;13.69;54.31;97273.09;5037704;28;20354;-72
2021/10/23 11:40:25;;;;;;;1.75;1.05;;;;;;;13.49;56.18;97274.50;5037190;28;20397;-71
2021/10/23 11:42:53;;;;;;;0.80;0.73;;;;;;;13.93;55.63;97273.03;5037016;28;20739;-72
2021/10/23 11:45:22;;;;;;;7.90;1.45;;;;;;;14.60;65.45;97272.31;5037567;28;20613;-72
2021/10/23 11:47:53;;;;;;;1.08;0.98;;;;;;;14.70;56.02;97279.88;5038841;28;20197;-72